Wootton Bassett, United Kingdom
Current Conditions -  °F | °C
As of 3:58 AM on Friday 19 Dec 2014 (Local Time) from EGVA Reporting Station
Light Rain Light Rain  
Wind Chill: 53°   Ceiling: 900
Heat Index: 53°   Visibility: 6mi
Dew Point: 52°   Wind: 24mph
Humidity: 97%   Direction: 250°WSW
Pressure: 29.75"   Gusts: 30mph
Location:  51.54°N, 1.9°W
Report Text: EGVA 190358Z AUTO 25021G26KT 9999 -RA OVC009 12/11 A2975 RMK AO2 PK WND 25027/45 SLP078 P0000 T01180113
Loading
Personal Weather Stations






























Interactive Weather Map New forecast layout! Learn more

10-Day Weather Forecast

Advertisements
Track Severe Weather on mobile